Time;durP1;ratioP1;P1;durP2;ratioP2;P2;SDS_P1;SDS_P2;PMS_P1;PMS_P2;Temp;Humidity;BMP_temperature;BMP_pressure;BME280_temperature;BME280_humidity;BME280_pressure;Samples;Min_cycle;Max_cycle;Signal;HPM_P1;HPM_P2
2022/05/09 00:01:39;;;;;;;9.88;2.83;;;16.10;99.50;;;;;;4955163;28;20507;-78
2022/05/09 00:04:05;;;;;;;4.47;2.95;;;16.10;99.60;;;;;;4939628;28;20075;-78
2022/05/09 00:06:31;;;;;;;6.10;2.75;;;16.10;99.60;;;;;;4935517;29;20028;-78
2022/05/09 00:08:57;;;;;;;7.68;3.05;;;16.00;99.90;;;;;;4934654;29;20114;-79
2022/05/09 00:11:22;;;;;;;8.48;2.60;;;15.90;99.90;;;;;;4935539;29;20024;-78
2022/05/09 00:13:49;;;;;;;4.45;2.80;;;16.00;99.90;;;;;;4937187;29;20031;-78
2022/05/09 00:16:15;;;;;;;4.75;2.55;;;16.00;99.60;;;;;;4944364;28;20107;-78
2022/05/09 00:18:40;;;;;;;3.83;2.33;;;16.00;99.70;;;;;;4935505;29;20110;-78
2022/05/09 00:21:06;;;;;;;5.15;2.97;;;15.90;99.70;;;;;;4935428;29;20079;-79
2022/05/09 00:23:32;;;;;;;7.20;2.92;;;15.90;99.90;;;;;;4934341;29;20118;-79
2022/05/09 00:25:58;;;;;;;7.15;3.13;;;15.90;99.60;;;;;;4935141;29;20365;-78
2022/05/09 00:28:25;;;;;;;5.88;2.78;;;15.90;99.80;;;;;;4935086;29;20028;-78
2022/05/09 00:30:51;;;;;;;6.75;2.80;;;15.90;99.70;;;;;;4935241;29;20038;-78
2022/05/09 00:33:17;;;;;;;6.28;2.80;;;16.00;99.60;;;;;;4935702;29;20491;-78
2022/05/09 00:35:44;;;;;;;7.57;3.15;;;15.90;99.80;;;;;;4935031;29;20028;-78
2022/05/09 00:38:10;;;;;;;6.63;3.13;;;15.90;99.70;;;;;;4934935;29;20051;-79
2022/05/09 00:40:38;;;;;;;5.18;2.50;;;16.00;99.90;;;;;;4934922;29;20035;-78
2022/05/09 00:43:28;;;;;;;11.10;3.30;;;15.90;99.80;;;;;;4932794;29;20040;-78
2022/05/09 00:45:53;;;;;;;5.78;2.58;;;15.90;99.70;;;;;;4916156;29;20108;-78
2022/05/09 00:48:19;;;;;;;7.90;2.78;;;15.80;99.90;;;;;;4916272;29;20111;-78
2022/05/09 00:50:45;;;;;;;7.00;3.00;;;15.90;99.70;;;;;;4916405;29;20024;-78
2022/05/09 00:53:12;;;;;;;5.05;2.58;;;15.80;99.70;;;;;;4914886;29;20043;-79
2022/05/09 00:55:48;;;;;;;6.07;2.83;;;15.80;99.90;;;;;;4915904;29;20046;-79
2022/05/09 00:58:50;;;;;;;4.60;2.70;;;15.70;99.90;;;;;;4940045;28;20036;-79
2022/05/09 01:01:17;;;;;;;6.85;3.17;;;15.70;99.90;;;;;;4936346;29;20035;-79
2022/05/09 01:03:53;;;;;;;6.50;2.42;;;15.80;99.80;;;;;;4946760;28;20040;-79
2022/05/09 01:06:19;;;;;;;4.65;2.40;;;15.80;99.90;;;;;;4915930;29;20111;-78
2022/05/09 01:08:44;;;;;;;6.32;2.75;;;15.80;99.90;;;;;;4915941;29;20107;-78
2022/05/09 01:11:16;;;;;;;7.72;3.08;;;15.70;99.90;;;;;;4914084;29;20063;-79
2022/05/09 01:13:46;;;;;;;7.03;2.58;;;15.60;99.90;;;;;;4915908;29;20035;-78
2022/05/09 01:16:14;;;;;;;4.20;2.53;;;15.70;99.90;;;;;;4914684;29;20496;-78
2022/05/09 01:18:40;;;;;;;4.75;2.50;;;15.60;99.90;;;;;;4915950;29;20032;-79
2022/05/09 01:21:32;;;;;;;5.32;2.83;;;15.60;99.90;;;;;;4914559;29;20048;-78
2022/05/09 01:23:58;;;;;;;5.38;2.78;;;15.60;99.90;;;;;;4921555;29;20483;-78
2022/05/09 01:26:24;;;;;;;6.28;2.90;;;15.50;99.90;;;;;;4934931;29;20035;-78
2022/05/09 01:28:50;;;;;;;6.63;2.95;;;15.50;99.90;;;;;;4934855;29;20038;-78
2022/05/09 01:31:18;;;;;;;11.88;2.97;;;15.50;99.90;;;;;;4934568;29;20029;-79
2022/05/09 01:33:49;;;;;;;5.72;2.80;;;15.50;99.90;;;;;;4934678;29;20027;-79
2022/05/09 01:36:24;;;;;;;4.57;2.57;;;15.30;99.90;;;;;;4933415;29;20024;-79
2022/05/09 01:38:59;;;;;;;3.88;2.75;;;15.30;99.90;;;;;;4933774;29;20843;-78
2022/05/09 01:41:27;;;;;;;6.38;3.15;;;15.50;99.90;;;;;;4934523;29;20476;-78
2022/05/09 01:43:55;;;;;;;6.72;2.60;;;15.50;99.90;;;;;;4934253;29;20031;-78
2022/05/09 01:46:29;;;;;;;5.40;2.67;;;15.50;99.90;;;;;;4934980;29;20102;-78
2022/05/09 01:51:42;;;;;;;5.00;2.45;;;15.40;99.90;;;;;;4923040;29;20043;-78
2022/05/09 01:54:09;;;;;;;5.53;2.67;;;15.40;99.90;;;;;;4932915;29;20507;-78
2022/05/09 01:56:37;;;;;;;5.32;2.88;;;15.30;99.90;;;;;;4934465;29;20059;-79
2022/05/09 01:59:06;;;;;;;6.45;2.53;;;15.20;99.90;;;;;;4934169;29;20107;-78
2022/05/09 02:01:36;;;;;;;9.60;2.65;;;15.10;99.90;;;;;;4931284;29;20107;-78
2022/05/09 02:04:03;;;;;;;6.03;3.13;;;15.10;99.90;;;;;;4915263;29;20536;-78
2022/05/09 02:06:28;;;;;;;5.00;2.50;;;15.10;99.90;;;;;;4915287;29;20492;-79
2022/05/09 02:08:54;;;;;;;7.97;3.00;;;15.00;99.90;;;;;;4914800;29;20051;-78
2022/05/09 02:11:20;;;;;;;6.18;2.58;;;14.90;99.90;;;;;;4916841;29;20070;-78
2022/05/09 02:13:45;;;;;;;7.78;2.72;;;15.00;99.90;;;;;;4919047;29;20051;-78
2022/05/09 02:16:11;;;;;;;8.23;2.95;;;14.90;99.90;;;;;;4919226;29;20538;-78
2022/05/09 02:18:38;;;;;;;10.00;3.22;;;14.80;99.90;;;;;;4937689;29;20382;-78
2022/05/09 02:21:04;;;;;;;5.88;2.88;;;14.70;99.90;;;;;;4937732;29;20035;-78
2022/05/09 02:23:31;;;;;;;7.07;2.92;;;14.60;99.90;;;;;;4937674;29;20039;-78
2022/05/09 02:25:57;;;;;;;8.02;3.10;;;14.60;99.90;;;;;;4937611;29;20026;-78
2022/05/09 02:28:22;;;;;;;9.35;3.50;;;14.70;99.90;;;;;;4937722;29;20384;-78
2022/05/09 02:30:48;;;;;;;5.07;2.88;;;14.60;99.90;;;;;;4937483;29;20031;-79
2022/05/09 02:33:14;;;;;;;6.88;3.00;;;14.70;99.90;;;;;;4956453;29;20023;-78
2022/05/09 02:35:41;;;;;;;5.10;3.00;;;14.60;99.90;;;;;;4956634;28;20023;-78
2022/05/09 02:38:07;;;;;;;11.40;3.13;;;14.50;99.90;;;;;;4953196;28;20047;-79
2022/05/09 02:40:33;;;;;;;6.30;2.50;;;14.50;99.90;;;;;;4918469;29;20025;-78
2022/05/09 02:43:00;;;;;;;5.38;2.63;;;14.50;99.90;;;;;;4930439;29;20059;-79
2022/05/09 02:45:26;;;;;;;10.52;2.90;;;14.40;99.90;;;;;;4936162;29;20034;-79
2022/05/09 02:47:53;;;;;;;4.68;2.58;;;14.40;99.90;;;;;;4937056;29;20016;-79
2022/05/09 02:50:23;;;;;;;5.10;3.05;;;14.40;99.90;;;;;;4937441;29;20131;-80
2022/05/09 02:52:51;;;;;;;6.80;3.30;;;14.30;99.90;;;;;;4936850;29;20031;-79
2022/05/09 02:55:18;;;;;;;4.75;2.78;;;14.30;99.90;;;;;;4935622;29;20129;-78
2022/05/09 02:57:45;;;;;;;5.22;3.40;;;14.10;99.90;;;;;;4946400;29;20058;-79
2022/05/09 03:00:23;;;;;;;8.30;3.42;;;14.10;99.90;;;;;;4926235;29;20115;-78
2022/05/09 03:05:36;;;;;;;8.15;2.80;;;14.10;99.90;;;;;;4918002;29;20039;-78
2022/05/09 03:08:02;;;;;;;8.20;2.92;;;14.00;99.90;;;;;;4917743;29;20064;-78
2022/05/09 03:10:31;;;;;;;3.72;2.55;;;14.10;99.90;;;;;;4942210;29;20510;-78
2022/05/09 03:13:01;;;;;;;4.40;2.80;;;14.20;99.90;;;;;;4955881;29;20027;-78
2022/05/09 03:15:33;;;;;;;6.80;3.30;;;14.10;99.90;;;;;;4956019;28;20074;-79
2022/05/09 03:17:58;;;;;;;5.50;3.58;;;14.00;99.90;;;;;;4954718;28;20027;-78
2022/05/09 03:20:24;;;;;;;5.28;2.67;;;13.90;99.90;;;;;;4955489;28;20462;-78
2022/05/09 03:22:50;;;;;;;8.25;3.30;;;13.90;99.90;;;;;;4941522;28;20044;-78
2022/05/09 03:25:16;;;;;;;8.30;2.97;;;13.90;99.90;;;;;;4917656;29;20528;-78
2022/05/09 03:27:43;;;;;;;8.65;3.33;;;13.90;99.90;;;;;;4917832;29;20552;-78
2022/05/09 03:30:10;;;;;;;6.45;3.17;;;13.90;99.90;;;;;;4950848;29;20402;-79
2022/05/09 03:32:35;;;;;;;6.78;3.10;;;13.90;99.90;;;;;;4934287;28;20036;-78
2022/05/09 03:35:05;;;;;;;5.15;3.10;;;13.90;99.90;;;;;;4916919;29;20032;-78
2022/05/09 03:37:31;;;;;;;8.50;3.28;;;13.90;99.90;;;;;;4916564;29;20082;-78
2022/05/09 03:39:57;;;;;;;7.15;3.35;;;13.90;99.90;;;;;;4918513;29;20076;-78
2022/05/09 03:42:23;;;;;;;8.05;3.38;;;14.00;99.90;;;;;;4917170;29;20024;-79
2022/05/09 03:44:51;;;;;;;9.23;3.38;;;14.00;99.90;;;;;;4917681;29;20049;-78
2022/05/09 03:47:17;;;;;;;8.10;3.53;;;13.90;99.90;;;;;;4917117;29;20028;-79
2022/05/09 03:49:43;;;;;;;8.25;3.50;;;13.90;99.90;;;;;;4915660;29;20135;-78
2022/05/09 03:52:09;;;;;;;7.20;2.97;;;13.80;99.90;;;;;;4916897;29;20021;-78
2022/05/09 03:54:35;;;;;;;7.50;3.65;;;13.90;99.90;;;;;;4917083;29;20028;-78
2022/05/09 03:57:01;;;;;;;6.38;3.20;;;14.00;99.90;;;;;;4917099;29;20531;-78
2022/05/09 03:59:26;;;;;;;8.57;3.50;;;13.90;99.90;;;;;;4917059;29;20035;-78
2022/05/09 04:01:52;;;;;;;9.90;3.72;;;13.70;99.90;;;;;;4917008;29;20104;-78
2022/05/09 04:04:18;;;;;;;5.75;3.20;;;13.70;99.90;;;;;;4916388;29;20028;-79
2022/05/09 04:06:44;;;;;;;7.72;3.00;;;13.70;99.90;;;;;;4932260;29;20030;-78
2022/05/09 04:09:09;;;;;;;9.00;3.40;;;13.80;99.90;;;;;;4954602;28;20102;-78
2022/05/09 04:11:35;;;;;;;7.30;3.30;;;13.70;99.90;;;;;;4955393;28;20034;-78
2022/05/09 04:14:01;;;;;;;10.57;3.03;;;13.70;99.90;;;;;;4953558;29;20065;-80
2022/05/09 04:19:11;;;;;;;6.75;3.33;;;13.70;99.90;;;;;;4933967;29;20403;-78
2022/05/09 04:21:37;;;;;;;12.30;3.47;;;13.70;99.90;;;;;;4915271;29;20119;-78
2022/05/09 04:24:03;;;;;;;5.72;3.08;;;13.80;99.90;;;;;;4916502;29;20418;-78
2022/05/09 04:26:31;;;;;;;9.20;3.30;;;13.80;99.90;;;;;;4916486;29;20024;-78
2022/05/09 04:28:57;;;;;;;10.32;3.08;;;13.80;99.90;;;;;;4917026;29;20028;-78
2022/05/09 04:31:23;;;;;;;6.00;2.75;;;13.70;99.90;;;;;;4916195;29;20024;-78
2022/05/09 04:33:49;;;;;;;8.85;3.28;;;13.70;99.90;;;;;;4914545;29;20040;-78
2022/05/09 04:36:15;;;;;;;9.38;3.13;;;13.60;99.90;;;;;;4917049;29;20480;-79
2022/05/09 04:38:43;;;;;;;6.07;3.38;;;13.60;99.90;;;;;;4926172;29;20052;-79
2022/05/09 04:41:10;;;;;;;5.78;3.15;;;13.60;99.90;;;;;;4928426;29;20125;-79
2022/05/09 04:43:37;;;;;;;9.35;3.85;;;13.60;99.90;;;;;;4940270;29;20098;-79
2022/05/09 04:46:05;;;;;;;10.50;3.50;;;13.50;99.90;;;;;;4954279;29;20023;-79
2022/05/09 04:48:31;;;;;;;8.25;3.50;;;13.50;99.90;;;;;;4944605;28;20027;-79
2022/05/09 04:50:58;;;;;;;8.90;3.30;;;13.40;99.90;;;;;;4954252;28;20019;-80
2022/05/09 04:53:25;;;;;;;6.82;3.55;;;13.30;99.90;;;;;;4946528;28;20039;-81
2022/05/09 04:55:51;;;;;;;6.63;3.47;;;13.40;99.90;;;;;;4953817;28;20582;-81
2022/05/09 04:58:20;;;;;;;7.47;3.38;;;13.50;99.90;;;;;;4948004;28;20039;-81
2022/05/09 05:00:47;;;;;;;9.80;3.40;;;13.50;99.90;;;;;;4940920;29;20054;-80
2022/05/09 05:03:13;;;;;;;6.88;3.38;;;13.50;99.90;;;;;;4954343;28;20098;-79
2022/05/09 05:05:40;;;;;;;5.93;3.25;;;13.50;99.90;;;;;;4928492;28;20111;-79
2022/05/09 05:08:06;;;;;;;10.10;3.30;;;13.50;99.90;;;;;;4944180;29;20059;-79
2022/05/09 05:10:32;;;;;;;8.27;3.67;;;13.50;99.90;;;;;;4945541;29;20043;-79
2022/05/09 05:12:59;;;;;;;8.23;3.50;;;13.50;99.90;;;;;;4953619;29;20038;-79
2022/05/09 05:15:26;;;;;;;7.68;3.20;;;13.60;99.90;;;;;;4953502;28;20023;-79
2022/05/09 05:17:51;;;;;;;6.18;3.53;;;13.60;99.90;;;;;;4953855;28;20039;-81
2022/05/09 07:00:25;;;;;;;13.85;4.95;;;15.60;99.90;;;;;;4953833;28;20541;-79
2022/05/09 07:02:51;;;;;;;13.40;5.72;;;15.70;99.90;;;;;;4954360;28;20039;-77
2022/05/09 07:05:19;;;;;;;16.73;5.82;;;15.70;99.90;;;;;;4950678;28;20494;-77
2022/05/09 07:07:46;;;;;;;12.82;5.10;;;15.80;99.90;;;;;;4957151;28;20106;-77
2022/05/09 07:10:13;;;;;;;19.05;4.93;;;15.80;99.90;;;;;;4954064;29;20073;-77
2022/05/09 07:12:50;;;;;;;11.98;4.78;;;15.90;99.90;;;;;;4961095;28;20038;-77
2022/05/09 07:15:23;;;;;;;7.93;3.90;;;16.00;99.90;;;;;;4954088;28;20023;-77
2022/05/09 07:17:53;;;;;;;10.02;4.88;;;15.90;99.90;;;;;;4954927;29;20058;-76
2022/05/09 07:20:20;;;;;;;7.60;4.40;;;16.00;99.90;;;;;;4954051;29;20074;-77
2022/05/09 07:22:51;;;;;;;8.20;3.85;;;16.10;99.90;;;;;;4955198;28;20027;-77
2022/05/09 07:25:20;;;;;;;11.15;4.72;;;16.10;99.90;;;;;;4953453;28;20015;-77
2022/05/09 07:27:46;;;;;;;14.48;4.90;;;16.10;99.90;;;;;;4955253;28;20406;-77
2022/05/09 07:30:14;;;;;;;9.27;4.28;;;16.20;99.90;;;;;;4953344;29;20030;-77
2022/05/09 07:32:40;;;;;;;7.45;4.35;;;16.20;99.90;;;;;;4969660;28;20475;-77
2022/05/09 07:35:08;;;;;;;9.02;4.03;;;16.30;99.90;;;;;;4952960;28;20022;-77
2022/05/09 07:37:34;;;;;;;10.95;4.38;;;16.40;99.90;;;;;;4955378;29;20367;-77
2022/05/09 07:40:00;;;;;;;11.80;4.80;;;16.50;99.90;;;;;;4955360;28;20023;-77
2022/05/09 07:42:27;;;;;;;10.55;4.60;;;16.50;99.90;;;;;;4950959;29;20038;-77
2022/05/09 07:44:56;;;;;;;11.82;4.45;;;16.60;99.90;;;;;;4968932;28;20047;-77
2022/05/09 07:47:22;;;;;;;10.25;4.82;;;16.70;99.90;;;;;;4953696;28;20447;-77
2022/05/09 07:49:48;;;;;;;10.88;4.50;;;16.70;99.90;;;;;;4955836;28;20102;-77
2022/05/09 07:52:13;;;;;;;10.90;4.70;;;16.80;99.90;;;;;;4956084;28;20102;-77
2022/05/09 07:54:39;;;;;;;12.55;4.78;;;16.70;99.90;;;;;;4956663;28;20042;-79
2022/05/09 07:57:05;;;;;;;10.93;4.70;;;16.90;99.90;;;;;;4952959;29;20033;-77
2022/05/09 07:59:30;;;;;;;17.77;4.68;;;17.10;99.90;;;;;;4952894;28;20043;-77
2022/05/09 08:01:56;;;;;;;11.73;4.70;;;17.10;99.90;;;;;;4949758;28;20526;-77
2022/05/09 08:04:23;;;;;;;9.45;4.28;;;17.40;99.90;;;;;;4953391;28;20496;-78
2022/05/09 08:06:48;;;;;;;12.35;3.97;;;17.60;99.90;;;;;;4952768;28;20036;-78
2022/05/09 08:09:14;;;;;;;12.00;4.00;;;17.60;99.90;;;;;;4953453;28;20023;-77
2022/05/09 08:11:41;;;;;;;11.13;4.30;;;17.80;99.90;;;;;;4954114;28;20550;-77
2022/05/09 08:14:08;;;;;;;10.50;4.43;;;18.00;99.90;;;;;;4951381;28;20567;-78
2022/05/09 08:16:33;;;;;;;10.10;4.03;;;18.20;99.90;;;;;;4953790;28;20031;-79
2022/05/09 08:19:02;;;;;;;12.00;4.00;;;18.30;99.90;;;;;;4949682;28;20519;-85
2022/05/09 08:21:28;;;;;;;17.83;4.72;;;18.90;99.90;;;;;;4950758;29;20110;-76
2022/05/09 08:23:54;;;;;;;14.95;4.55;;;19.30;99.90;;;;;;4952119;28;20030;-76
2022/05/09 08:26:22;;;;;;;11.77;4.30;;;19.70;99.90;;;;;;4954412;28;20023;-80
2022/05/09 08:28:54;;;;;;;12.70;4.05;;;19.60;99.60;;;;;;4952576;29;20039;-82
2022/05/09 08:31:21;;;;;;;14.80;4.85;;;20.10;98.60;;;;;;4955178;28;20102;-77
2022/05/09 08:33:49;;;;;;;11.45;4.15;;;19.90;98.30;;;;;;4951928;28;20332;-79
2022/05/09 08:39:00;;;;;;;11.00;4.07;;;20.70;96.80;;;;;;4947810;29;20034;-78
2022/05/09 08:41:48;;;;;;;12.43;3.80;;;21.10;97.10;;;;;;4952423;28;20023;-78
2022/05/09 08:44:42;;;;;;;9.25;3.67;;;21.20;95.90;;;;;;4947224;29;20031;-78
2022/05/09 08:47:33;;;;;;;10.90;3.75;;;21.40;95.50;;;;;;4951294;29;20039;-78
2022/05/09 08:50:32;;;;;;;9.35;3.78;;;21.60;94.90;;;;;;4948476;28;20041;-79
2022/05/09 08:53:02;;;;;;;12.73;4.32;;;21.90;94.30;;;;;;4951560;29;20050;-78
2022/05/09 08:55:35;;;;;;;11.60;3.78;;;22.20;93.10;;;;;;4950038;28;20034;-76
2022/05/09 08:58:37;;;;;;;9.95;3.45;;;21.90;93.00;;;;;;4951559;28;20039;-77
2022/05/09 09:01:09;;;;;;;7.97;3.47;;;21.90;93.20;;;;;;4954103;28;20445;-77
2022/05/09 09:03:39;;;;;;;8.50;3.53;;;22.30;92.90;;;;;;4955444;28;20135;-77
2022/05/09 09:06:14;;;;;;;8.52;3.65;;;22.30;91.70;;;;;;4951741;28;20042;-77
2022/05/09 09:08:53;;;;;;;6.10;3.10;;;22.10;91.70;;;;;;4955918;28;20035;-77
2022/05/09 09:11:40;;;;;;;11.00;3.20;;;22.50;91.50;;;;;;4951816;29;20019;-77
2022/05/09 09:14:32;;;;;;;7.22;3.00;;;22.80;91.10;;;;;;4953799;28;20122;-77
2022/05/09 09:17:18;;;;;;;;;;;23.10;87.50;;;;;;4944789;29;20356;-77
2022/05/09 09:19:52;;;;;;;8.45;2.95;;;22.50;86.10;;;;;;4951324;28;20005;-77
2022/05/09 09:22:37;;;;;;;5.68;2.95;;;23.00;85.20;;;;;;4951739;29;20103;-77
2022/05/09 09:25:26;;;;;;;5.97;3.38;;;23.40;84.80;;;;;;4952776;29;20074;-77
2022/05/09 09:28:05;;;;;;;11.98;3.97;;;23.30;84.00;;;;;;4952381;28;20526;-76
2022/05/09 09:30:31;;;;;;;9.07;3.70;;;23.30;83.90;;;;;;4953296;28;20030;-77
2022/05/09 09:33:04;;;;;;;7.07;3.75;;;23.40;84.70;;;;;;4950920;28;20028;-77
2022/05/09 09:35:38;;;;;;;10.70;3.67;;;23.30;86.70;;;;;;4952108;28;20059;-76
2022/05/09 09:38:19;;;;;;;8.82;4.00;;;23.40;85.00;;;;;;4952587;28;20175;-77
2022/05/09 09:40:45;;;;;;;15.98;3.88;;;23.40;84.20;;;;;;4952623;29;20091;-74
2022/05/09 09:43:11;;;;;;;21.10;3.65;;;23.70;85.80;;;;;;4952382;28;20043;-74
2022/05/09 09:45:49;;;;;;;10.98;4.20;;;24.00;84.40;;;;;;4953769;29;20035;-77
2022/05/09 09:48:20;;;;;;;20.48;3.55;;;24.00;83.70;;;;;;4950680;28;20025;-77
2022/05/09 09:50:55;;;;;;;11.23;3.33;;;24.20;82.80;;;;;;4957047;28;20023;-77
2022/05/09 09:53:40;;;;;;;6.97;3.70;;;24.20;83.60;;;;;;4951052;29;20024;-77
2022/05/09 09:56:21;;;;;;;10.18;3.67;;;24.10;83.60;;;;;;4950906;28;20031;-76
2022/05/09 09:58:51;;;;;;;10.55;4.40;;;23.90;83.20;;;;;;4955212;28;20510;-77
2022/05/09 10:01:24;;;;;;;11.57;3.70;;;24.20;85.30;;;;;;4951290;28;20031;-77
2022/05/09 10:04:06;;;;;;;7.78;3.80;;;24.60;84.80;;;;;;4949010;29;20027;-77
2022/05/09 10:06:31;;;;;;;;;;;24.20;81.50;;;;;;4951921;28;20054;-77
2022/05/09 10:09:00;;;;;;;6.55;3.40;;;24.30;81.10;;;;;;4950383;29;19976;-77
2022/05/09 10:11:29;;;;;;;8.07;3.55;;;24.80;79.10;;;;;;4950713;28;20023;-77
2022/05/09 10:14:01;;;;;;;8.02;3.50;;;24.70;79.80;;;;;;4948661;28;20058;-77
2022/05/09 10:16:33;;;;;;;8.48;3.72;;;24.50;80.00;;;;;;4960052;28;20033;-77
2022/05/09 10:19:03;;;;;;;9.55;3.83;;;24.70;79.80;;;;;;4948968;29;20039;-72
2022/05/09 10:27:22;;;;;;;14.38;4.38;;;24.50;79.30;;;;;;4961377;28;20102;-75
2022/05/09 10:29:56;;;;;;;12.15;3.70;;;24.40;81.80;;;;;;4949592;28;20028;-75
2022/05/09 10:32:30;;;;;;;13.07;3.75;;;24.60;80.10;;;;;;4952622;28;20027;-74
2022/05/09 10:34:56;;;;;;;15.13;3.17;;;24.90;81.90;;;;;;4953110;28;20015;-74
2022/05/09 10:37:49;;;;;;;14.98;4.00;;;25.00;79.90;;;;;;4954130;28;20024;-74
2022/05/09 10:40:40;;;;;;;6.15;2.97;;;24.70;80.80;;;;;;4953242;29;20031;-75
2022/05/09 10:43:11;;;;;;;9.02;3.25;;;25.00;77.10;;;;;;4955013;29;20031;-74
2022/05/09 10:45:44;;;;;;;7.93;2.78;;;25.20;75.70;;;;;;4952767;29;20082;-74
2022/05/09 10:48:22;;;;;;;7.15;3.10;;;25.40;73.60;;;;;;4952204;29;20079;-75
2022/05/09 10:51:12;;;;;;;5.35;2.60;;;25.60;73.80;;;;;;4953395;29;20035;-74
2022/05/09 10:54:23;;;;;;;6.20;2.60;;;25.70;74.30;;;;;;4952165;29;20030;-74
2022/05/09 10:57:04;;;;;;;4.90;2.47;;;26.00;69.20;;;;;;4945259;28;20047;-74
2022/05/09 10:59:33;;;;;;;3.67;2.13;;;26.00;67.10;;;;;;4961581;28;20121;-74
2022/05/09 11:02:33;;;;;;;8.18;2.00;;;26.00;66.70;;;;;;4953170;28;20122;-74
2022/05/09 11:04:59;;;;;;;3.88;2.25;;;26.10;66.00;;;;;;4944014;28;20042;-74
2022/05/09 11:08:03;;;;;;;6.65;2.20;;;26.30;65.70;;;;;;4951870;28;20582;-75
2022/05/09 11:10:53;;;;;;;3.53;2.20;;;26.50;66.80;;;;;;4941133;28;20047;-74
2022/05/09 11:14:01;;;;;;;7.40;2.90;;;26.50;63.60;;;;;;4934328;29;20028;-74
2022/05/09 11:17:09;;;;;;;7.43;2.55;;;26.00;64.80;;;;;;4951544;28;20038;-74
2022/05/09 11:19:54;;;;;;;7.88;2.00;;;25.80;62.80;;;;;;4875278;29;20097;-74
2022/05/09 11:22:44;;;;;;;6.78;2.13;;;25.50;62.80;;;;;;4874278;29;20084;-75
2022/05/09 11:25:28;;;;;;;3.42;1.95;;;26.20;64.80;;;;;;4875997;29;20048;-75
2022/05/09 11:28:03;;;;;;;4.80;2.03;;;26.70;63.60;;;;;;4878561;29;20037;-74
2022/05/09 11:30:36;;;;;;;5.10;2.47;;;26.40;59.70;;;;;;4866180;29;20037;-75
2022/05/09 11:33:20;;;;;;;4.40;1.88;;;26.30;58.90;;;;;;4867480;29;20052;-74
2022/05/09 11:35:50;;;;;;;3.53;2.03;;;26.50;59.00;;;;;;4875678;29;20040;-75
2022/05/09 11:38:34;;;;;;;10.27;2.58;;;26.70;63.50;;;;;;4875666;29;20138;-75
2022/05/09 11:41:11;;;;;;;5.15;2.28;;;26.90;61.30;;;;;;4876727;29;20093;-74
2022/05/09 11:43:37;;;;;;;5.40;2.42;;;27.10;58.60;;;;;;4873302;29;20036;-74
2022/05/09 11:46:27;;;;;;;7.78;2.40;;;27.50;60.60;;;;;;4877443;29;20477;-74
2022/05/09 11:49:27;;;;;;;11.43;2.53;;;26.90;60.40;;;;;;4871322;29;20017;-74
2022/05/09 11:52:00;;;;;;;6.28;2.10;;;26.20;60.50;;;;;;4865455;29;20193;-75
2022/05/09 11:54:40;;;;;;;8.40;2.25;;;26.50;59.20;;;;;;4935850;29;20032;-74
2022/05/09 11:57:17;;;;;;;5.68;2.13;;;26.50;56.40;;;;;;4953146;28;20046;-75
2022/05/09 11:59:52;;;;;;;4.47;2.00;;;26.30;57.30;;;;;;4952697;28;20055;-74
2022/05/09 12:02:44;;;;;;;7.07;2.17;;;26.30;57.10;;;;;;4947071;28;20459;-74
2022/05/09 12:05:25;;;;;;;4.63;2.28;;;27.10;61.30;;;;;;4952689;28;20039;-75
2022/05/09 12:08:21;;;;;;;4.20;2.20;;;27.40;60.60;;;;;;4954189;28;20028;-75
2022/05/09 12:10:50;;;;;;;3.55;1.90;;;26.50;58.00;;;;;;4945864;28;20043;-75
2022/05/09 12:13:35;;;;;;;3.65;1.90;;;26.60;58.90;;;;;;4953899;29;20023;-75
2022/05/09 12:16:01;;;;;;;6.05;2.35;;;26.40;56.80;;;;;;4949447;29;20039;-75
2022/05/09 12:18:27;;;;;;;3.65;2.20;;;26.80;59.50;;;;;;4951438;29;20026;-75
2022/05/09 12:20:53;;;;;;;8.43;2.33;;;26.60;59.50;;;;;;4952807;28;20027;-74
2022/05/09 12:23:47;;;;;;;4.07;2.13;;;27.00;58.60;;;;;;4952708;28;20038;-74
2022/05/09 12:26:34;;;;;;;2.78;1.80;;;26.20;57.00;;;;;;4943665;29;20436;-74
2022/05/09 12:29:12;;;;;;;4.07;1.92;;;26.80;61.00;;;;;;4954274;28;20493;-73
2022/05/09 12:32:00;;;;;;;4.90;2.53;;;26.70;55.50;;;;;;4955306;28;20090;-75
2022/05/09 12:34:36;;;;;;;6.00;2.00;;;27.10;57.60;;;;;;4947325;28;20027;-74
2022/05/09 12:37:03;;;;;;;6.65;2.20;;;26.90;56.40;;;;;;4952508;28;20083;-74
2022/05/09 12:39:55;;;;;;;2.90;1.88;;;26.90;58.70;;;;;;4950726;28;20020;-75
2022/05/09 12:42:39;;;;;;;6.18;1.77;;;27.00;55.80;;;;;;4949340;29;20035;-75
2022/05/09 12:45:05;;;;;;;3.42;2.30;;;26.40;55.60;;;;;;4959115;28;20031;-74
2022/05/09 12:47:36;;;;;;;3.58;2.10;;;26.60;54.60;;;;;;4952272;28;20042;-74
2022/05/09 12:50:05;;;;;;;4.47;1.95;;;26.40;58.10;;;;;;4951271;28;20023;-75
2022/05/09 12:52:39;;;;;;;4.85;1.70;;;26.40;54.90;;;;;;4956107;28;20034;-75
2022/05/09 12:57:49;;;;;;;6.57;2.22;;;26.80;57.80;;;;;;4949030;29;20509;-74
2022/05/09 13:00:22;;;;;;;5.00;2.20;;;26.70;54.70;;;;;;4950389;29;20047;-74
2022/05/09 13:02:48;;;;;;;5.40;2.15;;;26.80;56.20;;;;;;4952668;28;20019;-74
2022/05/09 13:05:15;;;;;;;3.78;1.98;;;27.10;55.80;;;;;;4950146;28;20368;-74
2022/05/09 13:08:02;;;;;;;6.25;1.98;;;27.20;53.80;;;;;;4952977;28;20077;-74
2022/05/09 13:10:29;;;;;;;3.88;2.20;;;26.90;54.60;;;;;;4948829;28;20035;-75
2022/05/09 13:13:06;;;;;;;4.18;1.73;;;26.80;53.10;;;;;;4952990;29;20116;-75
2022/05/09 13:15:33;;;;;;;3.28;1.88;;;26.80;53.50;;;;;;4949067;28;20028;-75
2022/05/09 13:18:06;;;;;;;3.50;2.00;;;26.70;53.90;;;;;;4952265;28;20210;-74
2022/05/09 13:20:39;;;;;;;7.15;2.08;;;26.80;53.10;;;;;;4950427;29;20494;-74
2022/05/09 13:23:08;;;;;;;3.17;1.73;;;26.50;52.90;;;;;;4952525;28;20043;-74
2022/05/09 13:25:39;;;;;;;6.78;1.98;;;26.50;53.30;;;;;;4950006;28;20019;-75
2022/05/09 13:28:08;;;;;;;5.18;1.90;;;26.70;51.80;;;;;;4949078;28;20024;-75
2022/05/09 13:30:38;;;;;;;8.40;1.95;;;26.90;52.20;;;;;;4946061;28;20023;-75
2022/05/09 13:33:05;;;;;;;5.75;1.80;;;26.90;52.70;;;;;;4952887;28;20031;-74
2022/05/09 13:35:35;;;;;;;3.33;1.90;;;27.10;52.50;;;;;;4951624;28;20122;-73
2022/05/09 13:38:22;;;;;;;4.17;1.90;;;27.20;53.60;;;;;;4953240;28;20390;-72
2022/05/09 13:40:52;;;;;;;4.70;2.53;;;27.20;52.20;;;;;;4951301;28;20034;-72
2022/05/09 13:43:26;;;;;;;9.82;1.85;;;27.10;53.30;;;;;;4948083;28;20110;-72
2022/05/09 13:46:34;;;;;;;6.32;1.77;;;26.90;52.50;;;;;;4946193;28;20086;-72
2022/05/09 13:49:06;;;;;;;5.90;1.90;;;27.10;52.10;;;;;;4945351;29;20126;-73
2022/05/09 13:51:35;;;;;;;6.25;2.08;;;27.20;55.60;;;;;;4949051;28;20027;-73
2022/05/09 13:54:06;;;;;;;5.47;1.92;;;27.10;53.80;;;;;;4949488;28;20478;-73
2022/05/09 13:56:33;;;;;;;4.93;2.00;;;27.20;53.50;;;;;;4944030;29;20390;-72
2022/05/09 13:59:06;;;;;;;4.57;2.25;;;27.30;52.90;;;;;;4950383;28;20050;-74
2022/05/09 14:01:41;;;;;;;3.38;1.95;;;27.30;52.00;;;;;;4951741;28;20381;-74
2022/05/09 14:04:09;;;;;;;3.53;1.70;;;26.90;51.90;;;;;;4949045;28;20110;-74
2022/05/09 14:06:36;;;;;;;3.08;1.80;;;26.70;55.00;;;;;;4952064;28;20031;-74
2022/05/09 14:09:14;;;;;;;2.60;1.73;;;26.60;55.60;;;;;;4951393;28;20051;-74
2022/05/09 14:11:51;;;;;;;3.85;1.90;;;26.40;55.00;;;;;;4952019;29;20061;-74
2022/05/09 14:14:37;;;;;;;3.95;1.50;;;26.70;53.90;;;;;;4954103;28;20471;-74
2022/05/09 14:17:10;;;;;;;5.00;2.08;;;26.80;54.00;;;;;;4950484;29;20038;-74
2022/05/09 14:19:37;;;;;;;6.05;2.00;;;26.70;53.00;;;;;;4944048;28;20050;-73
2022/05/09 14:22:03;;;;;;;2.95;1.75;;;26.70;53.50;;;;;;4954191;29;20023;-74
2022/05/09 14:24:31;;;;;;;3.15;1.60;;;26.70;53.30;;;;;;4953940;29;20524;-74
2022/05/09 14:29:51;;;;;;;8.45;1.70;;;26.60;51.80;;;;;;4954345;28;20029;-74
2022/05/09 14:32:39;;;;;;;1.98;1.40;;;26.60;51.80;;;;;;4956998;28;20030;-74
2022/05/09 14:35:05;;;;;;;4.95;1.33;;;26.70;51.00;;;;;;4952615;29;20395;-74
2022/05/09 14:37:35;;;;;;;2.75;1.42;;;26.30;50.60;;;;;;4954945;28;20034;-74
2022/05/09 14:40:00;;;;;;;6.13;1.98;;;26.00;51.90;;;;;;4952112;28;20039;-75
2022/05/09 14:42:32;;;;;;;6.60;1.80;;;26.40;52.10;;;;;;4952688;29;20027;-74
2022/05/09 14:45:03;;;;;;;3.42;1.70;;;26.70;51.70;;;;;;4954761;28;20038;-74
2022/05/09 14:47:38;;;;;;;;;;;26.50;50.20;;;;;;4953358;28;20487;-74
2022/05/09 14:50:22;;;;;;;2.38;1.42;;;26.40;49.20;;;;;;4953684;29;20350;-74
2022/05/09 14:53:35;;;;;;;5.65;1.35;;;26.70;49.50;;;;;;4958915;28;20023;-74
2022/05/09 14:59:23;;;;;;;4.20;1.50;;;26.90;49.70;;;;;;4949709;29;20820;-74
2022/05/09 15:02:08;;;;;;;5.22;1.92;;;26.60;51.50;;;;;;4951694;28;20051;-74
2022/05/09 15:04:34;;;;;;;5.22;1.77;;;26.70;50.10;;;;;;4949007;29;20043;-72
2022/05/09 15:07:01;;;;;;;4.78;1.30;;;26.70;49.20;;;;;;4953224;29;20030;-72
2022/05/09 15:09:28;;;;;;;8.20;2.42;;;26.70;49.10;;;;;;4950965;28;20015;-72
2022/05/09 15:11:54;;;;;;;3.22;1.65;;;26.80;51.20;;;;;;4952667;29;20039;-72
2022/05/09 15:14:20;;;;;;;3.33;1.33;;;26.80;50.80;;;;;;4950236;28;20679;-74
2022/05/09 15:16:47;;;;;;;7.63;1.77;;;26.80;50.40;;;;;;4953531;29;20423;-74